sensor_id;sensor_type;location;lat;lon;timestamp;P1;durP1;ratioP1;P2;durP2;ratioP2
27666;SDS011;15074;50.940;5.282;2023-02-27T00:11:09;5.80;;;1.25;;
27666;SDS011;15074;50.940;5.282;2023-02-27T00:13:35;3.08;;;1.75;;
27666;SDS011;15074;50.940;5.282;2023-02-27T00:19:02;2.65;;;1.42;;
27666;SDS011;15074;50.940;5.282;2023-02-27T00:21:29;5.32;;;1.75;;
27666;SDS011;15074;50.940;5.282;2023-02-27T00:23:55;4.82;;;1.48;;
27666;SDS011;15074;50.940;5.282;2023-02-27T00:29:47;4.97;;;1.30;;
27666;SDS011;15074;50.940;5.282;2023-02-27T00:32:13;3.15;;;1.67;;
27666;SDS011;15074;50.940;5.282;2023-02-27T00:38:24;4.35;;;1.50;;
27666;SDS011;15074;50.940;5.282;2023-02-27T00:40:51;5.20;;;1.48;;
27666;SDS011;15074;50.940;5.282;2023-02-27T00:50:37;3.03;;;1.60;;
27666;SDS011;15074;50.940;5.282;2023-02-27T00:53:04;7.50;;;1.80;;
27666;SDS011;15074;50.940;5.282;2023-02-27T00:55:30;2.40;;;1.60;;
27666;SDS011;15074;50.940;5.282;2023-02-27T00:57:56;3.92;;;1.60;;
27666;SDS011;15074;50.940;5.282;2023-02-27T01:00:41;3.13;;;1.80;;
27666;SDS011;15074;50.940;5.282;2023-02-27T01:06:12;3.10;;;1.63;;
27666;SDS011;15074;50.940;5.282;2023-02-27T01:08:38;3.30;;;1.70;;
27666;SDS011;15074;50.940;5.282;2023-02-27T01:26:54;4.38;;;1.73;;
27666;SDS011;15074;50.940;5.282;2023-02-27T01:29:19;4.60;;;1.75;;
27666;SDS011;15074;50.940;5.282;2023-02-27T01:55:44;3.83;;;1.83;;
27666;SDS011;15074;50.940;5.282;2023-02-27T01:58:11;4.27;;;2.73;;
27666;SDS011;15074;50.940;5.282;2023-02-27T02:00:39;5.22;;;2.00;;
27666;SDS011;15074;50.940;5.282;2023-02-27T02:03:11;3.95;;;2.00;;
27666;SDS011;15074;50.940;5.282;2023-02-27T02:05:38;6.05;;;2.15;;
27666;SDS011;15074;50.940;5.282;2023-02-27T02:11:47;3.13;;;2.10;;
27666;SDS011;15074;50.940;5.282;2023-02-27T02:40:00;6.47;;;2.90;;
27666;SDS011;15074;50.940;5.282;2023-02-27T03:00:20;4.35;;;2.70;;
27666;SDS011;15074;50.940;5.282;2023-02-27T03:16:43;11.57;;;3.03;;
27666;SDS011;15074;50.940;5.282;2023-02-27T03:25:20;6.20;;;2.72;;
27666;SDS011;15074;50.940;5.282;2023-02-27T03:27:38;3.58;;;3.00;;
27666;SDS011;15074;50.940;5.282;2023-02-27T03:30:35;8.60;;;3.00;;
27666;SDS011;15074;50.940;5.282;2023-02-27T03:33:45;6.22;;;2.80;;
27666;SDS011;15074;50.940;5.282;2023-02-27T03:39:39;4.68;;;3.03;;
27666;SDS011;15074;50.940;5.282;2023-02-27T03:46:24;4.15;;;2.75;;
27666;SDS011;15074;50.940;5.282;2023-02-27T03:49:07;5.72;;;2.72;;
27666;SDS011;15074;50.940;5.282;2023-02-27T03:51:33;5.05;;;2.75;;
27666;SDS011;15074;50.940;5.282;2023-02-27T03:57:32;5.50;;;3.17;;
27666;SDS011;15074;50.940;5.282;2023-02-27T03:59:59;12.65;;;4.53;;
27666;SDS011;15074;50.940;5.282;2023-02-27T04:02:25;4.60;;;2.83;;
27666;SDS011;15074;50.940;5.282;2023-02-27T04:04:52;5.05;;;3.20;;
27666;SDS011;15074;50.940;5.282;2023-02-27T04:07:21;5.50;;;3.20;;
27666;SDS011;15074;50.940;5.282;2023-02-27T04:26:03;6.55;;;3.42;;
27666;SDS011;15074;50.940;5.282;2023-02-27T04:28:46;12.95;;;3.22;;
27666;SDS011;15074;50.940;5.282;2023-02-27T04:31:23;6.78;;;3.28;;
27666;SDS011;15074;50.940;5.282;2023-02-27T04:34:05;3.75;;;2.70;;
27666;SDS011;15074;50.940;5.282;2023-02-27T04:36:57;5.10;;;3.78;;
27666;SDS011;15074;50.940;5.282;2023-02-27T04:39:27;7.65;;;4.53;;
27666;SDS011;15074;50.940;5.282;2023-02-27T04:42:25;5.03;;;3.70;;
27666;SDS011;15074;50.940;5.282;2023-02-27T04:44:56;6.45;;;2.92;;
27666;SDS011;15074;50.940;5.282;2023-02-27T04:47:26;9.00;;;4.63;;
27666;SDS011;15074;50.940;5.282;2023-02-27T04:56:37;5.78;;;3.53;;
27666;SDS011;15074;50.940;5.282;2023-02-27T04:59:12;6.03;;;3.75;;
27666;SDS011;15074;50.940;5.282;2023-02-27T05:01:53;6.38;;;3.17;;
27666;SDS011;15074;50.940;5.282;2023-02-27T05:07:56;11.48;;;4.43;;
27666;SDS011;15074;50.940;5.282;2023-02-27T05:10:51;6.50;;;3.83;;
27666;SDS011;15074;50.940;5.282;2023-02-27T05:17:12;8.63;;;4.20;;
27666;SDS011;15074;50.940;5.282;2023-02-27T05:23:13;6.53;;;4.55;;
27666;SDS011;15074;50.940;5.282;2023-02-27T05:28:22;7.20;;;4.35;;
27666;SDS011;15074;50.940;5.282;2023-02-27T05:36:50;8.88;;;4.53;;
27666;SDS011;15074;50.940;5.282;2023-02-27T05:39:29;9.07;;;5.32;;
27666;SDS011;15074;50.940;5.282;2023-02-27T05:42:00;10.32;;;4.95;;
27666;SDS011;15074;50.940;5.282;2023-02-27T05:45:18;7.50;;;5.25;;
27666;SDS011;15074;50.940;5.282;2023-02-27T05:47:48;6.03;;;5.22;;
27666;SDS011;15074;50.940;5.282;2023-02-27T05:50:36;9.15;;;5.03;;
27666;SDS011;15074;50.940;5.282;2023-02-27T05:53:04;6.07;;;4.55;;
27666;SDS011;15074;50.940;5.282;2023-02-27T05:55:51;7.22;;;5.15;;
27666;SDS011;15074;50.940;5.282;2023-02-27T06:16:56;16.15;;;7.20;;
27666;SDS011;15074;50.940;5.282;2023-02-27T06:19:21;7.93;;;5.85;;
27666;SDS011;15074;50.940;5.282;2023-02-27T06:22:05;6.80;;;5.22;;
27666;SDS011;15074;50.940;5.282;2023-02-27T06:30:55;9.02;;;5.95;;
27666;SDS011;15074;50.940;5.282;2023-02-27T06:33:21;6.95;;;6.10;;
27666;SDS011;15074;50.940;5.282;2023-02-27T06:35:50;10.82;;;6.95;;
27666;SDS011;15074;50.940;5.282;2023-02-27T06:45:00;9.32;;;5.57;;
27666;SDS011;15074;50.940;5.282;2023-02-27T06:47:26;11.70;;;6.55;;
27666;SDS011;15074;50.940;5.282;2023-02-27T07:03:37;6.65;;;5.38;;
27666;SDS011;15074;50.940;5.282;2023-02-27T07:06:03;9.27;;;5.30;;
27666;SDS011;15074;50.940;5.282;2023-02-27T07:08:29;6.68;;;4.68;;
27666;SDS011;15074;50.940;5.282;2023-02-27T07:10:54;8.68;;;5.18;;
27666;SDS011;15074;50.940;5.282;2023-02-27T07:13:20;8.80;;;5.38;;
27666;SDS011;15074;50.940;5.282;2023-02-27T07:15:46;7.70;;;4.55;;
27666;SDS011;15074;50.940;5.282;2023-02-27T07:18:11;5.65;;;4.28;;
27666;SDS011;15074;50.940;5.282;2023-02-27T07:20:37;6.50;;;4.50;;
27666;SDS011;15074;50.940;5.282;2023-02-27T07:23:04;6.70;;;4.32;;
27666;SDS011;15074;50.940;5.282;2023-02-27T07:25:29;7.70;;;4.45;;
27666;SDS011;15074;50.940;5.282;2023-02-27T07:27:55;6.07;;;4.60;;
27666;SDS011;15074;50.940;5.282;2023-02-27T07:30:20;7.85;;;4.25;;
27666;SDS011;15074;50.940;5.282;2023-02-27T07:32:46;7.60;;;4.78;;
27666;SDS011;15074;50.940;5.282;2023-02-27T07:35:12;6.25;;;4.90;;
27666;SDS011;15074;50.940;5.282;2023-02-27T07:37:38;7.18;;;5.00;;
27666;SDS011;15074;50.940;5.282;2023-02-27T07:40:04;13.10;;;6.15;;
27666;SDS011;15074;50.940;5.282;2023-02-27T07:42:31;6.75;;;5.15;;
27666;SDS011;15074;50.940;5.282;2023-02-27T07:47:47;12.43;;;6.38;;
27666;SDS011;15074;50.940;5.282;2023-02-27T07:50:12;9.13;;;6.45;;
27666;SDS011;15074;50.940;5.282;2023-02-27T08:02:45;7.55;;;5.07;;
27666;SDS011;15074;50.940;5.282;2023-02-27T08:05:10;8.15;;;5.00;;
27666;SDS011;15074;50.940;5.282;2023-02-27T08:07:36;6.72;;;4.32;;
27666;SDS011;15074;50.940;5.282;2023-02-27T08:10:05;8.90;;;4.60;;
27666;SDS011;15074;50.940;5.282;2023-02-27T08:12:31;6.07;;;4.22;;
27666;SDS011;15074;50.940;5.282;2023-02-27T08:14:57;12.13;;;5.07;;
27666;SDS011;15074;50.940;5.282;2023-02-27T08:17:23;5.13;;;3.95;;
27666;SDS011;15074;50.940;5.282;2023-02-27T08:19:48;5.30;;;4.80;;
27666;SDS011;15074;50.940;5.282;2023-02-27T08:22:14;8.25;;;4.28;;
27666;SDS011;15074;50.940;5.282;2023-02-27T08:24:39;4.57;;;3.63;;
27666;SDS011;15074;50.940;5.282;2023-02-27T08:27:06;5.57;;;4.22;;
27666;SDS011;15074;50.940;5.282;2023-02-27T08:29:31;8.48;;;4.50;;
27666;SDS011;15074;50.940;5.282;2023-02-27T08:31:58;5.50;;;4.00;;
27666;SDS011;15074;50.940;5.282;2023-02-27T08:34:24;4.93;;;3.53;;
27666;SDS011;15074;50.940;5.282;2023-02-27T08:36:50;5.72;;;3.83;;
27666;SDS011;15074;50.940;5.282;2023-02-27T08:39:16;6.68;;;3.60;;
27666;SDS011;15074;50.940;5.282;2023-02-27T08:41:42;4.88;;;3.22;;
27666;SDS011;15074;50.940;5.282;2023-02-27T08:44:12;5.82;;;3.58;;
27666;SDS011;15074;50.940;5.282;2023-02-27T08:46:37;5.00;;;3.83;;
27666;SDS011;15074;50.940;5.282;2023-02-27T08:49:03;4.88;;;3.40;;
27666;SDS011;15074;50.940;5.282;2023-02-27T08:51:29;6.50;;;3.58;;
27666;SDS011;15074;50.940;5.282;2023-02-27T08:53:55;4.88;;;3.70;;
27666;SDS011;15074;50.940;5.282;2023-02-27T08:56:23;5.20;;;3.58;;
27666;SDS011;15074;50.940;5.282;2023-02-27T08:58:50;5.88;;;3.60;;
27666;SDS011;15074;50.940;5.282;2023-02-27T09:01:15;6.47;;;3.95;;
27666;SDS011;15074;50.940;5.282;2023-02-27T09:03:41;5.78;;;3.63;;
27666;SDS011;15074;50.940;5.282;2023-02-27T09:06:07;4.38;;;2.72;;
27666;SDS011;15074;50.940;5.282;2023-02-27T09:08:33;5.15;;;3.00;;
27666;SDS011;15074;50.940;5.282;2023-02-27T09:10:59;3.35;;;2.85;;
27666;SDS011;15074;50.940;5.282;2023-02-27T09:13:24;3.42;;;3.13;;
27666;SDS011;15074;50.940;5.282;2023-02-27T09:15:53;5.22;;;3.25;;
27666;SDS011;15074;50.940;5.282;2023-02-27T09:18:19;4.07;;;3.00;;
27666;SDS011;15074;50.940;5.282;2023-02-27T09:20:45;5.47;;;2.78;;
27666;SDS011;15074;50.940;5.282;2023-02-27T09:23:15;4.35;;;2.67;;
27666;SDS011;15074;50.940;5.282;2023-02-27T09:25:40;3.47;;;2.30;;
27666;SDS011;15074;50.940;5.282;2023-02-27T09:28:06;4.30;;;2.88;;
27666;SDS011;15074;50.940;5.282;2023-02-27T09:30:32;3.30;;;2.90;;
27666;SDS011;15074;50.940;5.282;2023-02-27T09:32:58;3.95;;;2.72;;
27666;SDS011;15074;50.940;5.282;2023-02-27T09:35:23;3.03;;;1.98;;
27666;SDS011;15074;50.940;5.282;2023-02-27T09:37:49;6.40;;;2.72;;
27666;SDS011;15074;50.940;5.282;2023-02-27T09:42:55;4.20;;;2.70;;
27666;SDS011;15074;50.940;5.282;2023-02-27T09:45:26;4.22;;;2.75;;
27666;SDS011;15074;50.940;5.282;2023-02-27T09:47:55;2.85;;;2.33;;
27666;SDS011;15074;50.940;5.282;2023-02-27T09:52:56;3.35;;;2.28;;
27666;SDS011;15074;50.940;5.282;2023-02-27T09:55:22;4.22;;;1.60;;
27666;SDS011;15074;50.940;5.282;2023-02-27T10:01:00;2.60;;;1.63;;
27666;SDS011;15074;50.940;5.282;2023-02-27T10:06:25;3.55;;;2.10;;
27666;SDS011;15074;50.940;5.282;2023-02-27T10:14:57;3.92;;;2.05;;
27666;SDS011;15074;50.940;5.282;2023-02-27T10:17:35;3.10;;;1.80;;
27666;SDS011;15074;50.940;5.282;2023-02-27T10:20:09;3.95;;;2.00;;
27666;SDS011;15074;50.940;5.282;2023-02-27T10:22:43;3.80;;;2.00;;
27666;SDS011;15074;50.940;5.282;2023-02-27T10:25:13;3.90;;;2.05;;
27666;SDS011;15074;50.940;5.282;2023-02-27T10:27:42;3.30;;;1.60;;
27666;SDS011;15074;50.940;5.282;2023-02-27T10:30:19;2.80;;;1.90;;
27666;SDS011;15074;50.940;5.282;2023-02-27T10:33:11;3.63;;;1.70;;
27666;SDS011;15074;50.940;5.282;2023-02-27T10:35:47;3.05;;;1.70;;
27666;SDS011;15074;50.940;5.282;2023-02-27T10:40:43;4.60;;;2.40;;
27666;SDS011;15074;50.940;5.282;2023-02-27T10:43:12;3.92;;;1.55;;
27666;SDS011;15074;50.940;5.282;2023-02-27T10:45:40;2.92;;;1.45;;
27666;SDS011;15074;50.940;5.282;2023-02-27T10:48:08;3.53;;;1.92;;
27666;SDS011;15074;50.940;5.282;2023-02-27T10:50:36;3.13;;;1.80;;
27666;SDS011;15074;50.940;5.282;2023-02-27T10:53:16;2.80;;;2.10;;
27666;SDS011;15074;50.940;5.282;2023-02-27T10:58:32;3.40;;;2.10;;
27666;SDS011;15074;50.940;5.282;2023-02-27T11:01:00;3.40;;;1.40;;
27666;SDS011;15074;50.940;5.282;2023-02-27T11:03:33;2.67;;;1.80;;
27666;SDS011;15074;50.940;5.282;2023-02-27T11:06:05;2.55;;;1.70;;
27666;SDS011;15074;50.940;5.282;2023-02-27T11:08:36;3.08;;;1.90;;
27666;SDS011;15074;50.940;5.282;2023-02-27T11:13:29;3.45;;;1.60;;
27666;SDS011;15074;50.940;5.282;2023-02-27T11:16:00;2.78;;;1.42;;
27666;SDS011;15074;50.940;5.282;2023-02-27T11:18:35;3.05;;;1.10;;
27666;SDS011;15074;50.940;5.282;2023-02-27T11:21:14;3.17;;;1.30;;
27666;SDS011;15074;50.940;5.282;2023-02-27T11:26:22;2.35;;;1.30;;
27666;SDS011;15074;50.940;5.282;2023-02-27T11:29:17;3.17;;;1.40;;
27666;SDS011;15074;50.940;5.282;2023-02-27T11:31:46;3.30;;;1.50;;
27666;SDS011;15074;50.940;5.282;2023-02-27T11:34:20;3.72;;;1.60;;
27666;SDS011;15074;50.940;5.282;2023-02-27T11:42:42;7.30;;;2.47;;
27666;SDS011;15074;50.940;5.282;2023-02-27T11:48:11;3.05;;;1.70;;
27666;SDS011;15074;50.940;5.282;2023-02-27T11:51:00;3.25;;;1.80;;
27666;SDS011;15074;50.940;5.282;2023-02-27T11:54:05;5.10;;;2.50;;
27666;SDS011;15074;50.940;5.282;2023-02-27T11:56:45;2.25;;;1.88;;
27666;SDS011;15074;50.940;5.282;2023-02-27T12:02:03;3.97;;;2.00;;
27666;SDS011;15074;50.940;5.282;2023-02-27T12:07:43;2.73;;;1.87;;
27666;SDS011;15074;50.940;5.282;2023-02-27T12:10:19;4.60;;;2.17;;
27666;SDS011;15074;50.940;5.282;2023-02-27T12:21:29;1.92;;;1.60;;
27666;SDS011;15074;50.940;5.282;2023-02-27T12:23:56;3.63;;;2.22;;
27666;SDS011;15074;50.940;5.282;2023-02-27T12:26:53;3.30;;;2.90;;
27666;SDS011;15074;50.940;5.282;2023-02-27T12:32:19;2.45;;;1.83;;
27666;SDS011;15074;50.940;5.282;2023-02-27T12:37:40;4.47;;;2.67;;
27666;SDS011;15074;50.940;5.282;2023-02-27T12:40:06;3.63;;;3.03;;
27666;SDS011;15074;50.940;5.282;2023-02-27T12:49:05;4.18;;;3.22;;
27666;SDS011;15074;50.940;5.282;2023-02-27T12:57:05;4.57;;;4.18;;
27666;SDS011;15074;50.940;5.282;2023-02-27T12:59:51;6.03;;;5.45;;
27666;SDS011;15074;50.940;5.282;2023-02-27T13:08:08;7.18;;;5.00;;
27666;SDS011;15074;50.940;5.282;2023-02-27T13:11:18;4.20;;;3.58;;
27666;SDS011;15074;50.940;5.282;2023-02-27T13:16:35;4.07;;;3.38;;
27666;SDS011;15074;50.940;5.282;2023-02-27T13:19:16;3.90;;;3.50;;
27666;SDS011;15074;50.940;5.282;2023-02-27T13:24:18;3.42;;;2.58;;
27666;SDS011;15074;50.940;5.282;2023-02-27T13:26:58;4.65;;;2.38;;
27666;SDS011;15074;50.940;5.282;2023-02-27T13:32:24;2.58;;;2.35;;
27666;SDS011;15074;50.940;5.282;2023-02-27T13:35:02;4.57;;;2.42;;
27666;SDS011;15074;50.940;5.282;2023-02-27T13:37:56;3.67;;;2.50;;
27666;SDS011;15074;50.940;5.282;2023-02-27T13:40:40;4.45;;;2.72;;
27666;SDS011;15074;50.940;5.282;2023-02-27T13:43:25;3.72;;;2.70;;
27666;SDS011;15074;50.940;5.282;2023-02-27T13:45:55;2.35;;;2.08;;
27666;SDS011;15074;50.940;5.282;2023-02-27T13:51:04;2.53;;;2.17;;
27666;SDS011;15074;50.940;5.282;2023-02-27T13:54:56;3.33;;;2.00;;
27666;SDS011;15074;50.940;5.282;2023-02-27T14:01:58;2.40;;;2.15;;
27666;SDS011;15074;50.940;5.282;2023-02-27T14:04:27;2.45;;;1.70;;
27666;SDS011;15074;50.940;5.282;2023-02-27T14:07:00;2.95;;;1.50;;
27666;SDS011;15074;50.940;5.282;2023-02-27T14:09:39;2.95;;;1.95;;
27666;SDS011;15074;50.940;5.282;2023-02-27T14:17:48;4.82;;;1.60;;
27666;SDS011;15074;50.940;5.282;2023-02-27T14:26:12;1.58;;;1.40;;
27666;SDS011;15074;50.940;5.282;2023-02-27T14:28:47;1.60;;;1.20;;
27666;SDS011;15074;50.940;5.282;2023-02-27T14:31:23;2.05;;;1.60;;
27666;SDS011;15074;50.940;5.282;2023-02-27T14:33:50;2.92;;;1.52;;
27666;SDS011;15074;50.940;5.282;2023-02-27T14:36:24;2.47;;;1.40;;
27666;SDS011;15074;50.940;5.282;2023-02-27T14:38:57;3.95;;;1.30;;
27666;SDS011;15074;50.940;5.282;2023-02-27T14:41:40;2.47;;;1.30;;
27666;SDS011;15074;50.940;5.282;2023-02-27T14:44:19;2.60;;;1.55;;
27666;SDS011;15074;50.940;5.282;2023-02-27T14:46:47;1.95;;;1.42;;
27666;SDS011;15074;50.940;5.282;2023-02-27T14:49:29;4.13;;;1.52;;
27666;SDS011;15074;50.940;5.282;2023-02-27T14:52:09;3.17;;;1.73;;
27666;SDS011;15074;50.940;5.282;2023-02-27T14:54:44;2.28;;;1.60;;
27666;SDS011;15074;50.940;5.282;2023-02-27T14:57:18;3.05;;;1.60;;
27666;SDS011;15074;50.940;5.282;2023-02-27T14:59:49;2.85;;;1.80;;
27666;SDS011;15074;50.940;5.282;2023-02-27T15:04:42;2.88;;;1.70;;
27666;SDS011;15074;50.940;5.282;2023-02-27T15:07:11;5.13;;;1.80;;
27666;SDS011;15074;50.940;5.282;2023-02-27T15:09:42;3.03;;;1.52;;
27666;SDS011;15074;50.940;5.282;2023-02-27T15:12:15;2.90;;;1.50;;
27666;SDS011;15074;50.940;5.282;2023-02-27T15:14:44;3.33;;;1.67;;
27666;SDS011;15074;50.940;5.282;2023-02-27T15:17:15;7.43;;;2.17;;
27666;SDS011;15074;50.940;5.282;2023-02-27T15:19:47;3.95;;;1.83;;
27666;SDS011;15074;50.940;5.282;2023-02-27T15:22:24;3.08;;;2.13;;
27666;SDS011;15074;50.940;5.282;2023-02-27T15:24:55;2.72;;;2.28;;
27666;SDS011;15074;50.940;5.282;2023-02-27T15:27:24;2.30;;;1.80;;
27666;SDS011;15074;50.940;5.282;2023-02-27T15:29:53;4.20;;;1.90;;
27666;SDS011;15074;50.940;5.282;2023-02-27T15:32:28;4.05;;;1.88;;
27666;SDS011;15074;50.940;5.282;2023-02-27T15:35:00;3.60;;;1.90;;
27666;SDS011;15074;50.940;5.282;2023-02-27T15:37:36;5.10;;;2.30;;
27666;SDS011;15074;50.940;5.282;2023-02-27T15:40:16;5.18;;;2.40;;
27666;SDS011;15074;50.940;5.282;2023-02-27T15:42:45;4.50;;;2.30;;
27666;SDS011;15074;50.940;5.282;2023-02-27T15:45:14;1.77;;;1.63;;
27666;SDS011;15074;50.940;5.282;2023-02-27T15:47:43;4.97;;;1.98;;
27666;SDS011;15074;50.940;5.282;2023-02-27T15:50:20;2.47;;;1.90;;
27666;SDS011;15074;50.940;5.282;2023-02-27T15:55:57;3.17;;;2.10;;
27666;SDS011;15074;50.940;5.282;2023-02-27T15:58:29;3.13;;;2.20;;
27666;SDS011;15074;50.940;5.282;2023-02-27T16:01:03;2.25;;;1.70;;
27666;SDS011;15074;50.940;5.282;2023-02-27T16:03:36;3.00;;;2.10;;
27666;SDS011;15074;50.940;5.282;2023-02-27T16:06:23;5.38;;;1.80;;
27666;SDS011;15074;50.940;5.282;2023-02-27T16:08:59;5.18;;;2.28;;
27666;SDS011;15074;50.940;5.282;2023-02-27T16:11:31;6.78;;;2.17;;
27666;SDS011;15074;50.940;5.282;2023-02-27T16:13:59;5.20;;;2.22;;
27666;SDS011;15074;50.940;5.282;2023-02-27T16:18:59;2.53;;;1.83;;
27666;SDS011;15074;50.940;5.282;2023-02-27T16:21:37;3.47;;;1.80;;
27666;SDS011;15074;50.940;5.282;2023-02-27T16:24:19;3.45;;;1.83;;
27666;SDS011;15074;50.940;5.282;2023-02-27T16:26:52;4.43;;;2.15;;
27666;SDS011;15074;50.940;5.282;2023-02-27T16:29:19;3.35;;;1.77;;
27666;SDS011;15074;50.940;5.282;2023-02-27T16:31:48;3.85;;;2.20;;
27666;SDS011;15074;50.940;5.282;2023-02-27T16:34:35;3.38;;;1.80;;
27666;SDS011;15074;50.940;5.282;2023-02-27T16:37:22;2.35;;;1.85;;
27666;SDS011;15074;50.940;5.282;2023-02-27T16:39:55;4.97;;;2.35;;
27666;SDS011;15074;50.940;5.282;2023-02-27T16:42:21;4.90;;;2.72;;
27666;SDS011;15074;50.940;5.282;2023-02-27T16:44:47;6.90;;;2.95;;
27666;SDS011;15074;50.940;5.282;2023-02-27T16:47:13;4.93;;;2.15;;
27666;SDS011;15074;50.940;5.282;2023-02-27T16:49:38;3.75;;;2.20;;
27666;SDS011;15074;50.940;5.282;2023-02-27T16:52:05;3.92;;;2.03;;
27666;SDS011;15074;50.940;5.282;2023-02-27T16:54:34;4.88;;;1.85;;
27666;SDS011;15074;50.940;5.282;2023-02-27T16:57:00;2.90;;;1.90;;
27666;SDS011;15074;50.940;5.282;2023-02-27T17:01:57;3.38;;;1.77;;
27666;SDS011;15074;50.940;5.282;2023-02-27T17:04:24;4.50;;;2.20;;
27666;SDS011;15074;50.940;5.282;2023-02-27T17:06:51;4.07;;;2.25;;
27666;SDS011;15074;50.940;5.282;2023-02-27T17:09:18;3.03;;;1.85;;
27666;SDS011;15074;50.940;5.282;2023-02-27T17:11:44;4.80;;;3.10;;
27666;SDS011;15074;50.940;5.282;2023-02-27T17:14:10;4.18;;;3.55;;
27666;SDS011;15074;50.940;5.282;2023-02-27T17:16:36;4.45;;;2.08;;
27666;SDS011;15074;50.940;5.282;2023-02-27T17:19:01;3.38;;;2.42;;
27666;SDS011;15074;50.940;5.282;2023-02-27T17:21:27;3.20;;;2.03;;
27666;SDS011;15074;50.940;5.282;2023-02-27T17:23:53;5.20;;;1.85;;
27666;SDS011;15074;50.940;5.282;2023-02-27T17:26:18;3.75;;;2.78;;
27666;SDS011;15074;50.940;5.282;2023-02-27T17:28:44;2.88;;;2.38;;
27666;SDS011;15074;50.940;5.282;2023-02-27T17:31:10;3.35;;;2.83;;
27666;SDS011;15074;50.940;5.282;2023-02-27T18:01:53;7.45;;;5.53;;
27666;SDS011;15074;50.940;5.282;2023-02-27T18:04:19;5.72;;;3.38;;
27666;SDS011;15074;50.940;5.282;2023-02-27T18:06:45;4.20;;;3.25;;
27666;SDS011;15074;50.940;5.282;2023-02-27T18:09:10;10.13;;;4.32;;
27666;SDS011;15074;50.940;5.282;2023-02-27T18:11:36;5.90;;;4.20;;
27666;SDS011;15074;50.940;5.282;2023-02-27T18:27:58;7.47;;;3.03;;
27666;SDS011;15074;50.940;5.282;2023-02-27T18:44:23;12.10;;;6.50;;
27666;SDS011;15074;50.940;5.282;2023-02-27T18:46:49;8.73;;;5.47;;
27666;SDS011;15074;50.940;5.282;2023-02-27T18:49:14;5.95;;;5.35;;
27666;SDS011;15074;50.940;5.282;2023-02-27T18:51:40;6.43;;;5.63;;
27666;SDS011;15074;50.940;5.282;2023-02-27T18:54:06;8.57;;;6.25;;
27666;SDS011;15074;50.940;5.282;2023-02-27T18:56:35;10.52;;;8.13;;
27666;SDS011;15074;50.940;5.282;2023-02-27T18:59:01;10.30;;;6.20;;
27666;SDS011;15074;50.940;5.282;2023-02-27T19:01:30;9.27;;;5.88;;
27666;SDS011;15074;50.940;5.282;2023-02-27T19:04:02;10.70;;;7.50;;
27666;SDS011;15074;50.940;5.282;2023-02-27T19:06:30;15.63;;;11.20;;
27666;SDS011;15074;50.940;5.282;2023-02-27T19:08:57;32.13;;;16.67;;
27666;SDS011;15074;50.940;5.282;2023-02-27T19:11:27;18.73;;;11.98;;
27666;SDS011;15074;50.940;5.282;2023-02-27T19:13:57;11.63;;;9.25;;
27666;SDS011;15074;50.940;5.282;2023-02-27T19:16:23;10.55;;;9.45;;
27666;SDS011;15074;50.940;5.282;2023-02-27T19:18:50;15.27;;;10.48;;
27666;SDS011;15074;50.940;5.282;2023-02-27T19:21:16;8.18;;;7.38;;
27666;SDS011;15074;50.940;5.282;2023-02-27T19:23:42;13.07;;;7.82;;
27666;SDS011;15074;50.940;5.282;2023-02-27T20:58:25;12.82;;;9.88;;
27666;SDS011;15074;50.940;5.282;2023-02-27T21:00:50;12.75;;;10.45;;
27666;SDS011;15074;50.940;5.282;2023-02-27T22:42:55;8.18;;;7.38;;
27666;SDS011;15074;50.940;5.282;2023-02-27T22:48:27;13.30;;;7.82;;
27666;SDS011;15074;50.940;5.282;2023-02-27T22:50:59;8.55;;;7.13;;
27666;SDS011;15074;50.940;5.282;2023-02-27T22:53:29;10.70;;;6.93;;
27666;SDS011;15074;50.940;5.282;2023-02-27T22:55:57;7.38;;;6.60;;
27666;SDS011;15074;50.940;5.282;2023-02-27T22:58:23;11.07;;;7.20;;
27666;SDS011;15074;50.940;5.282;2023-02-27T23:06:49;11.27;;;7.50;;
27666;SDS011;15074;50.940;5.282;2023-02-27T23:09:18;7.88;;;7.07;;
27666;SDS011;15074;50.940;5.282;2023-02-27T23:25:27;10.25;;;7.47;;
27666;SDS011;15074;50.940;5.282;2023-02-27T23:27:53;10.00;;;9.00;;
27666;SDS011;15074;50.940;5.282;2023-02-27T23:40:02;9.52;;;8.57;;
27666;SDS011;15074;50.940;5.282;2023-02-27T23:42:31;9.77;;;8.20;;
